Time;durP1;ratioP1;P1;durP2;ratioP2;P2;SDS_P1;SDS_P2;PMS_P1;PMS_P2;Temp;Humidity;BMP_temperature;BMP_pressure;BME280_temperature;BME280_humidity;BME280_pressure;Samples;Min_cycle;Max_cycle;Signal;HPM_P1;HPM_P2
2021/05/30 00:01:50;;;;;;;11.63;10.23;;;11.90;98.20;;;;;;5107725;28;20109;-39
2021/05/30 00:04:16;;;;;;;11.60;9.32;;;11.80;98.40;;;;;;5107602;28;20028;-39
2021/05/30 00:06:41;;;;;;;12.73;10.00;;;11.70;98.50;;;;;;5106439;28;20043;-39
2021/05/30 00:09:07;;;;;;;12.30;9.48;;;11.70;98.70;;;;;;5107673;28;20058;-39
2021/05/30 00:11:34;;;;;;;13.82;10.07;;;11.60;98.70;;;;;;5106490;28;20377;-38
2021/05/30 00:14:01;;;;;;;12.52;10.23;;;11.50;98.90;;;;;;5107386;28;20043;-41
2021/05/30 00:16:26;;;;;;;11.05;9.38;;;11.40;99.00;;;;;;5107935;28;20027;-39
2021/05/30 00:18:52;;;;;;;12.63;9.70;;;11.30;99.00;;;;;;5106335;28;20027;-39
2021/05/30 00:21:18;;;;;;;11.00;9.20;;;11.30;99.00;;;;;;5107087;28;20030;-39
2021/05/30 00:23:43;;;;;;;11.88;8.68;;;11.30;99.00;;;;;;5106874;28;20023;-39
2021/05/30 00:26:09;;;;;;;10.02;9.00;;;11.20;98.90;;;;;;5106777;28;20019;-39
2021/05/30 00:28:37;;;;;;;10.45;8.60;;;11.20;98.90;;;;;;5107244;28;20443;-40
2021/05/30 00:31:03;;;;;;;14.48;8.95;;;11.20;98.80;;;;;;5106681;28;20599;-42
2021/05/30 00:33:28;;;;;;;11.50;9.10;;;11.20;99.00;;;;;;5106625;28;20024;-40
2021/05/30 00:35:54;;;;;;;12.23;9.02;;;11.20;98.80;;;;;;5106653;28;20032;-39
2021/05/30 00:38:19;;;;;;;11.20;8.48;;;11.20;98.80;;;;;;5105631;28;20324;-38
2021/05/30 00:40:46;;;;;;;11.48;9.50;;;11.10;98.80;;;;;;5106053;28;20031;-39
2021/05/30 00:43:11;;;;;;;10.05;8.38;;;11.10;98.70;;;;;;5107280;28;20069;-40
2021/05/30 00:45:37;;;;;;;11.75;9.43;;;11.10;98.80;;;;;;5106336;28;20027;-36
2021/05/30 00:48:03;;;;;;;10.70;8.80;;;11.10;98.80;;;;;;5110155;28;20027;-39
2021/05/30 00:50:29;;;;;;;14.93;9.90;;;11.10;98.80;;;;;;5110806;28;20451;-39
2021/05/30 00:52:54;;;;;;;11.75;8.90;;;11.00;98.80;;;;;;5110770;28;20110;-39
2021/05/30 00:55:21;;;;;;;11.57;9.52;;;11.00;98.80;;;;;;5110509;28;20054;-39
2021/05/30 00:57:46;;;;;;;11.35;8.57;;;11.00;98.90;;;;;;5109830;28;20055;-39
2021/05/30 01:00:13;;;;;;;10.82;8.60;;;11.00;98.90;;;;;;5110865;28;20078;-39
2021/05/30 01:02:40;;;;;;;12.73;9.18;;;11.00;98.90;;;;;;5110411;28;20031;-38
2021/05/30 01:05:07;;;;;;;11.68;9.48;;;10.90;98.90;;;;;;5110864;28;20802;-38
2021/05/30 01:07:39;;;;;;;11.90;8.95;;;10.90;99.00;;;;;;5110293;28;20035;-41
2021/05/30 01:10:28;;;;;;;11.32;9.15;;;10.90;98.90;;;;;;5110276;28;20019;-39
2021/05/30 01:12:55;;;;;;;11.27;8.98;;;10.90;98.90;;;;;;5110350;28;20046;-39
2021/05/30 01:15:27;;;;;;;12.25;9.07;;;10.90;98.90;;;;;;5109540;28;20048;-39
2021/05/30 01:17:54;;;;;;;12.93;9.45;;;10.80;98.90;;;;;;5109286;28;20418;-40
2021/05/30 01:20:21;;;;;;;8.77;7.78;;;10.80;98.90;;;;;;5110207;28;20427;-39
2021/05/30 01:22:47;;;;;;;12.02;10.38;;;10.70;99.00;;;;;;5109769;27;20084;-38
2021/05/30 01:25:16;;;;;;;13.70;10.02;;;10.70;99.00;;;;;;5110876;28;20046;-40
2021/05/30 01:27:42;;;;;;;12.90;10.15;;;10.60;99.10;;;;;;5109554;27;20360;-39
2021/05/30 01:30:09;;;;;;;12.48;9.88;;;10.60;99.40;;;;;;5110414;28;20385;-36
2021/05/30 01:32:35;;;;;;;11.90;9.75;;;10.50;99.20;;;;;;5109687;28;20036;-38
2021/05/30 01:35:02;;;;;;;10.55;9.00;;;10.50;99.20;;;;;;5109619;28;20108;-38
2021/05/30 01:37:27;;;;;;;11.63;10.00;;;10.40;99.10;;;;;;5110019;28;20073;-38
2021/05/30 01:39:53;;;;;;;15.73;11.82;;;10.40;99.20;;;;;;5109930;28;20032;-38
2021/05/30 01:42:19;;;;;;;13.98;10.50;;;10.40;99.30;;;;;;5110221;28;20052;-39
2021/05/30 01:44:44;;;;;;;12.57;10.85;;;10.40;99.30;;;;;;5108816;28;20055;-39
2021/05/30 01:47:10;;;;;;;13.75;10.77;;;10.30;99.30;;;;;;5109711;28;20469;-39
2021/05/30 01:49:36;;;;;;;12.82;10.40;;;10.30;99.30;;;;;;5109853;28;20051;-39
2021/05/30 01:52:05;;;;;;;12.93;10.57;;;10.30;99.30;;;;;;5109215;28;20099;-39
2021/05/30 01:54:31;;;;;;;14.68;10.43;;;10.30;99.30;;;;;;5109858;27;20119;-39
2021/05/30 01:56:58;;;;;;;13.30;10.68;;;10.30;99.30;;;;;;5108635;28;20044;-39
2021/05/30 01:59:28;;;;;;;12.95;10.93;;;10.20;99.40;;;;;;5109875;28;20364;-38
2021/05/30 02:01:57;;;;;;;12.98;10.82;;;10.20;99.40;;;;;;5109587;28;20463;-39
2021/05/30 02:04:28;;;;;;;15.20;11.00;;;10.20;99.40;;;;;;5108102;28;20505;-39
2021/05/30 02:06:57;;;;;;;13.05;11.07;;;10.20;99.40;;;;;;5108902;27;20624;-39
2021/05/30 02:09:23;;;;;;;16.40;12.80;;;10.10;99.40;;;;;;5109225;27;20027;-40
2021/05/30 02:11:48;;;;;;;14.32;12.02;;;10.10;99.50;;;;;;5108972;28;20060;-39
2021/05/30 02:14:14;;;;;;;16.55;11.88;;;10.10;99.50;;;;;;5109312;28;20068;-38
2021/05/30 02:16:42;;;;;;;15.93;11.82;;;10.10;99.50;;;;;;5108755;28;20035;-39
2021/05/30 02:19:08;;;;;;;14.00;12.20;;;10.10;99.50;;;;;;5109256;28;20094;-39
2021/05/30 02:21:46;;;;;;;13.70;11.52;;;10.00;99.60;;;;;;5108857;28;20024;-39
2021/05/30 02:24:13;;;;;;;13.13;11.27;;;10.00;99.60;;;;;;5109292;28;20058;-40
2021/05/30 02:26:41;;;;;;;17.50;11.77;;;10.00;99.60;;;;;;5108738;28;20373;-40
2021/05/30 02:29:08;;;;;;;13.90;11.23;;;9.90;99.70;;;;;;5108893;28;20331;-39
2021/05/30 02:31:34;;;;;;;13.48;10.88;;;9.90;99.70;;;;;;5108913;28;20024;-40
2021/05/30 02:34:03;;;;;;;14.20;10.93;;;9.90;99.70;;;;;;5108196;28;20080;-37
2021/05/30 02:36:28;;;;;;;14.23;11.70;;;9.90;99.70;;;;;;5108630;28;20046;-39
2021/05/30 02:38:55;;;;;;;15.05;12.20;;;9.80;99.60;;;;;;5108443;28;20020;-39
2021/05/30 02:41:22;;;;;;;16.45;12.20;;;9.80;99.70;;;;;;5108779;28;20050;-40
2021/05/30 02:43:48;;;;;;;18.42;13.68;;;9.80;99.70;;;;;;5108151;28;20034;-39
2021/05/30 02:46:14;;;;;;;18.27;13.43;;;9.70;99.80;;;;;;5108294;28;20016;-39
2021/05/30 02:48:40;;;;;;;18.23;12.68;;;9.70;99.90;;;;;;5108425;28;20111;-40
2021/05/30 02:51:05;;;;;;;18.70;12.98;;;9.70;99.90;;;;;;5108922;28;20106;-39
2021/05/30 02:53:32;;;;;;;15.70;11.30;;;9.60;99.90;;;;;;5108152;28;20035;-39
2021/05/30 02:56:00;;;;;;;17.50;11.13;;;9.70;99.90;;;;;;5108210;28;20032;-44
2021/05/30 02:58:27;;;;;;;17.23;12.48;;;9.60;99.90;;;;;;5109071;28;20024;-40
2021/05/30 03:00:53;;;;;;;16.75;10.88;;;9.60;99.90;;;;;;5107672;28;20107;-38
2021/05/30 03:03:19;;;;;;;13.02;10.48;;;9.60;99.90;;;;;;5107134;28;20027;-39
2021/05/30 03:05:45;;;;;;;17.13;12.95;;;9.60;99.90;;;;;;5108160;28;20442;-41
2021/05/30 03:08:10;;;;;;;13.48;11.13;;;9.60;99.90;;;;;;5108015;28;20480;-40
2021/05/30 03:10:36;;;;;;;15.90;11.40;;;9.60;99.90;;;;;;5106762;28;20024;-40
2021/05/30 03:13:01;;;;;;;15.18;11.57;;;9.50;99.90;;;;;;5108244;28;20415;-43
2021/05/30 03:15:29;;;;;;;15.95;11.40;;;9.50;99.90;;;;;;5107595;28;20027;-39
2021/05/30 03:17:54;;;;;;;16.13;11.93;;;9.50;99.90;;;;;;5108064;28;20308;-39
2021/05/30 03:20:20;;;;;;;14.27;10.93;;;9.50;99.90;;;;;;5108257;28;20487;-39
2021/05/30 03:22:46;;;;;;;13.48;10.48;;;9.50;99.90;;;;;;5107343;28;20037;-39
2021/05/30 03:25:12;;;;;;;14.77;11.82;;;9.50;99.90;;;;;;5108088;28;20035;-38
2021/05/30 03:27:38;;;;;;;16.55;10.85;;;9.50;99.90;;;;;;5107770;28;20153;-39
2021/05/30 03:30:05;;;;;;;15.77;10.70;;;9.50;99.90;;;;;;5107643;28;20458;-36
2021/05/30 03:32:30;;;;;;;14.38;11.40;;;9.50;99.90;;;;;;5107703;28;20032;-38
2021/05/30 03:35:05;;;;;;;16.25;10.65;;;9.50;99.90;;;;;;5107594;28;20020;-38
2021/05/30 03:37:31;;;;;;;13.90;10.90;;;9.50;99.90;;;;;;5106488;28;20455;-39
2021/05/30 03:40:00;;;;;;;16.17;11.40;;;9.40;99.90;;;;;;5107469;28;20449;-38
2021/05/30 03:42:29;;;;;;;16.17;11.35;;;9.40;99.90;;;;;;5107187;28;20027;-39
2021/05/30 03:44:58;;;;;;;13.27;10.27;;;9.40;99.90;;;;;;5107736;28;20008;-37
2021/05/30 03:47:24;;;;;;;13.63;10.63;;;9.50;99.90;;;;;;5107236;28;20039;-39
2021/05/30 03:49:51;;;;;;;16.33;11.30;;;9.40;99.90;;;;;;5106770;28;20390;-39
2021/05/30 03:52:17;;;;;;;15.95;11.15;;;9.40;99.90;;;;;;5107183;28;20076;-38
2021/05/30 03:54:42;;;;;;;16.52;12.25;;;9.40;99.90;;;;;;5107178;28;20011;-39
2021/05/30 03:57:09;;;;;;;16.48;11.55;;;9.40;99.90;;;;;;5106939;28;20028;-41
2021/05/30 03:59:35;;;;;;;12.57;10.20;;;9.40;99.90;;;;;;5107427;28;20024;-39
2021/05/30 04:02:00;;;;;;;14.90;11.27;;;9.40;99.90;;;;;;5107401;28;20031;-40
2021/05/30 04:04:26;;;;;;;16.02;11.05;;;9.40;99.90;;;;;;5107224;28;20034;-40
2021/05/30 04:06:51;;;;;;;14.18;10.82;;;9.30;99.90;;;;;;5106730;28;20051;-39
2021/05/30 04:09:17;;;;;;;14.77;10.63;;;9.40;99.90;;;;;;5107774;28;20015;-40
2021/05/30 04:11:42;;;;;;;14.77;11.55;;;9.40;99.90;;;;;;5105680;28;20030;-38
2021/05/30 04:14:08;;;;;;;14.00;11.15;;;9.30;99.90;;;;;;5107481;28;20011;-40
2021/05/30 04:16:36;;;;;;;13.82;10.55;;;9.30;99.90;;;;;;5106906;28;20031;-40
2021/05/30 04:19:02;;;;;;;16.00;10.50;;;9.30;99.90;;;;;;5103246;28;20241;-39
2021/05/30 04:21:28;;;;;;;15.48;11.30;;;9.40;99.90;;;;;;5107030;28;20103;-38
2021/05/30 04:23:53;;;;;;;13.70;10.70;;;9.40;99.90;;;;;;5106604;28;20031;-39
2021/05/30 04:26:19;;;;;;;14.65;11.38;;;9.40;99.90;;;;;;5106782;28;20015;-39
2021/05/30 04:28:45;;;;;;;16.15;12.35;;;9.40;99.90;;;;;;5106788;28;20114;-38
2021/05/30 04:31:10;;;;;;;16.35;11.75;;;9.40;99.90;;;;;;5107462;28;20098;-38
2021/05/30 04:33:36;;;;;;;17.52;11.70;;;9.40;99.90;;;;;;5106589;28;20165;-40
2021/05/30 04:36:02;;;;;;;15.23;11.40;;;9.40;99.90;;;;;;5106539;28;20119;-39
2021/05/30 04:38:28;;;;;;;15.77;11.85;;;9.50;99.90;;;;;;5106561;28;20027;-40
2021/05/30 04:41:00;;;;;;;14.68;12.45;;;9.50;99.90;;;;;;5106692;28;20032;-38
2021/05/30 04:43:28;;;;;;;15.55;11.90;;;9.50;99.90;;;;;;5107038;28;20031;-38
2021/05/30 04:45:54;;;;;;;15.18;11.63;;;9.50;99.90;;;;;;5106036;28;20069;-38
2021/05/30 04:48:20;;;;;;;14.88;12.23;;;9.60;99.90;;;;;;5107455;28;20443;-40
2021/05/30 04:53:30;;;;;;;15.18;11.68;;;9.60;99.90;;;;;;5106368;28;20031;-40
2021/05/30 04:55:56;;;;;;;17.75;11.90;;;9.70;99.90;;;;;;5106804;28;20032;-39
2021/05/30 04:58:21;;;;;;;17.67;11.50;;;9.70;99.90;;;;;;5106858;28;20015;-40
2021/05/30 05:00:47;;;;;;;15.90;11.15;;;9.80;99.90;;;;;;5105965;28;20437;-39
2021/05/30 05:03:12;;;;;;;16.48;12.43;;;9.80;99.90;;;;;;5106649;28;20068;-43
2021/05/30 05:05:38;;;;;;;18.38;12.18;;;9.80;99.90;;;;;;5106843;28;20030;-38
2021/05/30 05:08:03;;;;;;;15.40;12.07;;;9.80;99.90;;;;;;5106344;28;20051;-39
2021/05/30 05:10:38;;;;;;;18.00;12.50;;;9.90;99.90;;;;;;5106505;28;20603;-39
2021/05/30 05:13:03;;;;;;;15.57;12.23;;;9.90;99.90;;;;;;5106101;28;20020;-39
2021/05/30 05:15:32;;;;;;;17.48;12.18;;;9.90;99.90;;;;;;5105844;28;20050;-38
2021/05/30 05:18:08;;;;;;;19.88;12.45;;;10.00;99.90;;;;;;5106124;28;20492;-39
2021/05/30 05:20:34;;;;;;;15.68;12.15;;;10.00;99.90;;;;;;5106117;28;20074;-40
2021/05/30 05:22:59;;;;;;;18.65;12.85;;;10.00;99.90;;;;;;5106409;28;20066;-40
2021/05/30 05:25:25;;;;;;;14.23;11.27;;;10.10;99.90;;;;;;5106090;28;20036;-40
2021/05/30 05:27:50;;;;;;;16.50;11.40;;;10.10;99.90;;;;;;5106251;28;20278;-38
2021/05/30 05:30:16;;;;;;;17.30;12.63;;;10.20;99.90;;;;;;5105914;28;20046;-39
2021/05/30 05:32:42;;;;;;;15.82;11.60;;;10.20;99.90;;;;;;5107568;28;20054;-42
2021/05/30 05:35:07;;;;;;;14.70;11.52;;;10.20;99.90;;;;;;5109807;28;20028;-37
2021/05/30 05:37:33;;;;;;;20.10;13.32;;;10.30;99.90;;;;;;5110076;28;20402;-39
2021/05/30 05:40:02;;;;;;;15.52;12.68;;;10.30;99.90;;;;;;5110148;28;20039;-40
2021/05/30 05:42:27;;;;;;;17.05;12.90;;;10.40;99.90;;;;;;5110082;28;20102;-39
2021/05/30 05:44:53;;;;;;;17.80;12.65;;;10.40;99.90;;;;;;5109996;28;20115;-38
2021/05/30 05:47:18;;;;;;;16.05;11.95;;;10.50;99.90;;;;;;5110463;28;20019;-39
2021/05/30 05:49:47;;;;;;;13.55;10.90;;;10.50;99.90;;;;;;5109359;28;20027;-39
2021/05/30 05:52:18;;;;;;;14.40;11.00;;;10.60;99.90;;;;;;5110734;28;20038;-40
2021/05/30 05:54:44;;;;;;;16.95;12.70;;;10.60;99.90;;;;;;5109776;28;20019;-37
2021/05/30 05:57:10;;;;;;;13.05;10.13;;;10.70;99.90;;;;;;5109677;28;20031;-40
2021/05/30 05:59:35;;;;;;;13.60;11.18;;;10.70;99.90;;;;;;5110173;28;20484;-40
2021/05/30 06:02:01;;;;;;;16.88;11.90;;;10.80;99.90;;;;;;5109563;28;20020;-37
2021/05/30 06:04:26;;;;;;;15.93;11.85;;;10.80;99.90;;;;;;5109954;28;20043;-40
2021/05/30 06:06:52;;;;;;;15.95;11.75;;;10.90;99.90;;;;;;5109278;28;20471;-40
2021/05/30 06:09:17;;;;;;;16.10;12.20;;;11.00;99.90;;;;;;5110174;28;20096;-40
2021/05/30 06:11:44;;;;;;;14.45;10.70;;;11.00;99.90;;;;;;5108997;28;20518;-40
2021/05/30 06:14:10;;;;;;;15.30;12.20;;;11.00;99.90;;;;;;5109656;28;20020;-39
2021/05/30 06:16:35;;;;;;;14.55;11.57;;;11.10;99.90;;;;;;5109311;28;20430;-40
2021/05/30 06:19:01;;;;;;;16.58;12.32;;;11.10;99.90;;;;;;5109197;28;20016;-39
2021/05/30 06:21:27;;;;;;;13.90;11.45;;;11.20;99.90;;;;;;5110022;28;20019;-40
2021/05/30 06:23:52;;;;;;;13.00;11.05;;;11.30;99.90;;;;;;5109595;27;20027;-38
2021/05/30 06:26:18;;;;;;;13.45;10.80;;;11.40;99.90;;;;;;5108975;28;20015;-38
2021/05/30 06:28:43;;;;;;;12.55;10.35;;;11.40;99.80;;;;;;5108665;28;20039;-38
2021/05/30 06:31:09;;;;;;;12.32;9.85;;;11.50;99.80;;;;;;5106688;28;20024;-39
2021/05/30 06:33:35;;;;;;;13.27;10.70;;;11.60;99.80;;;;;;5107966;28;20027;-40
2021/05/30 06:36:03;;;;;;;14.23;10.43;;;11.60;99.70;;;;;;5108397;28;20227;-39
2021/05/30 06:38:28;;;;;;;13.30;11.20;;;11.70;99.70;;;;;;5107996;28;20019;-38
2021/05/30 06:40:54;;;;;;;12.18;10.10;;;11.80;99.70;;;;;;5108178;28;20042;-38
2021/05/30 06:43:19;;;;;;;14.60;11.45;;;11.80;99.60;;;;;;5108035;28;20023;-38
2021/05/30 06:45:45;;;;;;;15.73;11.38;;;11.90;99.60;;;;;;5107235;28;20106;-39
2021/05/30 06:48:10;;;;;;;16.80;11.60;;;12.00;99.60;;;;;;5108546;28;20268;-38
2021/05/30 06:50:36;;;;;;;17.20;11.82;;;12.00;99.50;;;;;;5108316;28;20024;-39
2021/05/30 06:53:01;;;;;;;15.10;11.60;;;12.10;99.40;;;;;;5107675;28;20031;-39
2021/05/30 06:55:27;;;;;;;13.43;10.68;;;12.20;99.40;;;;;;5108853;28;20351;-39
2021/05/30 06:57:53;;;;;;;15.18;11.98;;;12.20;99.40;;;;;;5107473;28;20375;-39
2021/05/30 07:00:19;;;;;;;14.18;10.82;;;12.20;99.40;;;;;;5108246;28;20114;-39
2021/05/30 07:02:45;;;;;;;14.35;11.30;;;12.30;99.30;;;;;;5106971;28;20478;-40
2021/05/30 07:05:11;;;;;;;14.10;11.52;;;12.30;99.30;;;;;;5108803;28;20019;-40
2021/05/30 07:07:38;;;;;;;11.60;9.25;;;12.40;99.30;;;;;;5107086;28;20059;-36
2021/05/30 07:10:04;;;;;;;12.75;10.65;;;12.40;99.30;;;;;;5108148;28;20398;-40
2021/05/30 07:12:30;;;;;;;13.50;10.82;;;12.50;99.40;;;;;;5107845;28;20517;-40
2021/05/30 07:14:59;;;;;;;14.20;11.60;;;12.50;99.20;;;;;;5107125;27;20019;-40
2021/05/30 07:17:25;;;;;;;14.90;10.43;;;12.60;99.20;;;;;;5108212;28;20106;-38
2021/05/30 07:19:52;;;;;;;12.63;10.95;;;12.70;99.20;;;;;;5107928;28;20024;-39
2021/05/30 07:22:18;;;;;;;15.10;11.40;;;12.70;99.20;;;;;;5107675;28;20444;-39
2021/05/30 07:24:46;;;;;;;12.93;11.02;;;12.80;99.20;;;;;;5107623;28;20020;-38
2021/05/30 07:27:11;;;;;;;11.52;10.05;;;12.90;99.10;;;;;;5107943;28;20478;-43
2021/05/30 07:29:37;;;;;;;13.00;10.07;;;12.90;99.10;;;;;;5107531;28;20066;-40
2021/05/30 07:32:03;;;;;;;11.77;9.52;;;13.00;99.00;;;;;;5107542;28;20050;-40
2021/05/30 07:34:28;;;;;;;13.68;10.73;;;13.00;99.00;;;;;;5107870;28;20024;-39
2021/05/30 07:36:54;;;;;;;11.95;9.73;;;13.10;98.90;;;;;;5106957;28;20336;-40
2021/05/30 07:39:19;;;;;;;11.27;9.18;;;13.10;98.90;;;;;;5107078;28;20042;-41
2021/05/30 07:41:45;;;;;;;11.60;9.73;;;13.20;98.80;;;;;;5106744;28;20024;-40
2021/05/30 07:44:10;;;;;;;10.90;9.50;;;13.30;98.80;;;;;;5107785;28;20042;-38
2021/05/30 07:46:37;;;;;;;13.18;10.55;;;13.40;98.80;;;;;;5107514;28;20027;-40
2021/05/30 07:49:03;;;;;;;13.95;10.77;;;13.40;98.70;;;;;;5107005;28;20031;-40
2021/05/30 07:51:29;;;;;;;11.88;9.90;;;13.50;98.70;;;;;;5106642;28;20415;-38
2021/05/30 07:53:54;;;;;;;14.15;9.98;;;13.50;98.60;;;;;;5107429;28;20024;-39
2021/05/30 07:56:20;;;;;;;12.15;9.70;;;13.60;98.60;;;;;;5106603;28;20043;-39
2021/05/30 07:58:45;;;;;;;11.43;9.93;;;13.60;98.50;;;;;;5107106;28;20028;-41
2021/05/30 08:01:11;;;;;;;13.35;10.68;;;13.70;98.50;;;;;;5107130;28;20027;-41
2021/05/30 08:03:36;;;;;;;12.80;10.05;;;13.80;98.40;;;;;;5106839;28;20115;-38
2021/05/30 08:06:04;;;;;;;11.55;9.90;;;13.80;98.30;;;;;;5107415;28;20028;-39
2021/05/30 08:08:30;;;;;;;11.32;10.15;;;13.90;98.30;;;;;;5108040;28;20047;-39
2021/05/30 08:10:56;;;;;;;12.05;10.45;;;13.90;98.20;;;;;;5107175;28;20016;-38
2021/05/30 08:13:21;;;;;;;11.02;9.50;;;14.00;98.20;;;;;;5107723;28;20619;-40
2021/05/30 08:15:47;;;;;;;10.18;9.18;;;14.00;98.10;;;;;;5106521;28;20023;-39
2021/05/30 08:18:13;;;;;;;10.30;8.88;;;14.00;98.10;;;;;;5107155;28;20393;-40
2021/05/30 08:20:41;;;;;;;11.50;9.55;;;14.10;98.10;;;;;;5106973;28;20050;-38
2021/05/30 08:23:07;;;;;;;12.10;10.32;;;14.20;98.10;;;;;;5107353;28;20102;-40
2021/05/30 08:25:32;;;;;;;12.85;9.63;;;14.30;98.00;;;;;;5106598;28;20103;-39
2021/05/30 08:27:58;;;;;;;10.02;8.98;;;14.30;97.90;;;;;;5107005;28;20026;-39
2021/05/30 08:30:24;;;;;;;11.25;8.85;;;14.40;97.90;;;;;;5107389;28;20028;-38
2021/05/30 08:32:49;;;;;;;10.80;7.95;;;14.40;97.80;;;;;;5106504;28;20082;-39
2021/05/30 08:35:16;;;;;;;13.93;11.05;;;14.40;97.80;;;;;;5107379;28;20042;-37
2021/05/30 08:37:44;;;;;;;12.93;9.60;;;14.40;97.70;;;;;;5107091;28;20352;-38
2021/05/30 08:40:11;;;;;;;11.73;9.63;;;14.50;97.70;;;;;;5107051;28;20522;-40
2021/05/30 08:42:37;;;;;;;10.45;9.35;;;14.50;97.60;;;;;;5106780;28;20028;-40
2021/05/30 08:45:03;;;;;;;11.32;9.68;;;14.60;97.60;;;;;;5107191;28;20070;-40
2021/05/30 08:47:29;;;;;;;11.23;9.63;;;14.70;97.60;;;;;;5106939;28;20470;-40
2021/05/30 08:49:57;;;;;;;10.82;8.98;;;14.70;97.50;;;;;;5107345;28;20103;-41
2021/05/30 08:52:22;;;;;;;10.27;8.25;;;14.80;97.40;;;;;;5106510;28;20447;-39
2021/05/30 08:54:48;;;;;;;12.43;8.48;;;14.80;97.40;;;;;;5106983;28;20080;-41
2021/05/30 08:57:14;;;;;;;10.25;7.50;;;14.90;97.40;;;;;;5107372;28;20030;-42
2021/05/30 08:59:52;;;;;;;8.43;7.18;;;14.90;97.50;;;;;;5106624;28;20046;-40
2021/05/30 09:02:18;;;;;;;9.45;7.45;;;15.00;97.10;;;;;;5107026;28;20024;-39
2021/05/30 09:04:49;;;;;;;10.85;8.27;;;15.00;97.10;;;;;;5106588;28;20023;-39
2021/05/30 09:07:15;;;;;;;8.80;7.90;;;15.10;97.00;;;;;;5107286;28;20039;-41
2021/05/30 09:09:43;;;;;;;9.80;7.90;;;15.20;96.90;;;;;;5110699;28;20076;-39
2021/05/30 09:12:20;;;;;;;8.13;7.07;;;15.20;96.80;;;;;;5111352;28;20096;-40
2021/05/30 09:14:49;;;;;;;8.55;6.68;;;15.30;96.70;;;;;;5110153;28;20024;-35
2021/05/30 09:17:14;;;;;;;7.72;6.03;;;15.30;96.70;;;;;;5110696;28;20059;-37
2021/05/30 09:19:49;;;;;;;7.68;6.75;;;15.40;96.70;;;;;;5111073;28;20059;-43
2021/05/30 09:22:17;;;;;;;9.65;8.13;;;15.50;96.60;;;;;;5110965;28;20031;-41
2021/05/30 09:25:11;;;;;;;10.93;7.93;;;15.60;96.50;;;;;;5110879;28;20036;-40
2021/05/30 09:27:48;;;;;;;6.95;6.25;;;15.70;96.30;;;;;;5110183;28;20623;-40
2021/05/30 09:30:18;;;;;;;7.70;6.45;;;15.80;96.20;;;;;;5110700;28;20343;-37
2021/05/30 09:33:04;;;;;;;8.77;7.88;;;15.80;96.10;;;;;;5110242;28;20427;-40
2021/05/30 09:35:49;;;;;;;7.63;6.80;;;15.90;96.00;;;;;;5106582;28;20069;-39
2021/05/30 09:38:23;;;;;;;7.30;6.35;;;15.90;95.90;;;;;;5100011;28;20062;-39
2021/05/30 09:40:54;;;;;;;6.72;6.03;;;16.00;95.80;;;;;;5110159;28;20348;-39
2021/05/30 09:43:25;;;;;;;5.63;5.13;;;16.10;95.70;;;;;;5109797;27;20037;-39
2021/05/30 09:45:59;;;;;;;6.90;5.95;;;16.10;95.60;;;;;;5109391;28;20051;-39
2021/05/30 09:48:25;;;;;;;7.50;6.03;;;16.20;95.50;;;;;;5109378;28;20403;-39
2021/05/30 09:51:03;;;;;;;6.38;5.78;;;16.30;95.40;;;;;;5109625;28;20114;-40
2021/05/30 09:53:33;;;;;;;6.05;5.45;;;16.40;95.20;;;;;;5109463;28;20042;-41
2021/05/30 09:55:59;;;;;;;7.43;5.03;;;16.50;95.00;;;;;;5109439;28;20050;-40
2021/05/30 09:58:28;;;;;;;5.93;5.00;;;16.50;95.00;;;;;;5110101;28;20031;-39
2021/05/30 10:00:58;;;;;;;5.95;5.32;;;16.60;94.90;;;;;;5099114;28;20426;-39
2021/05/30 10:03:24;;;;;;;6.60;5.78;;;16.60;94.80;;;;;;5107606;27;20100;-39
2021/05/30 10:05:50;;;;;;;7.63;6.85;;;16.70;94.60;;;;;;5109375;28;20035;-40
2021/05/30 10:08:17;;;;;;;6.72;6.07;;;16.70;94.10;;;;;;5109614;28;20044;-39
2021/05/30 10:10:43;;;;;;;6.07;5.40;;;16.80;94.20;;;;;;5108817;28;20507;-42
2021/05/30 10:13:10;;;;;;;5.65;5.15;;;16.80;94.20;;;;;;5110044;28;20480;-40
2021/05/30 10:15:36;;;;;;;5.05;4.55;;;16.80;94.20;;;;;;5109107;28;20077;-40
2021/05/30 10:18:08;;;;;;;8.57;5.93;;;16.80;94.20;;;;;;5108601;28;20019;-40
2021/05/30 10:20:37;;;;;;;7.85;6.82;;;16.80;94.00;;;;;;5108535;27;20106;-38
2021/05/30 10:23:07;;;;;;;6.38;5.30;;;16.90;93.90;;;;;;5108521;28;20106;-39
2021/05/30 10:25:35;;;;;;;8.27;6.50;;;16.90;93.90;;;;;;5106639;28;20177;-39
2021/05/30 10:28:11;;;;;;;6.78;6.07;;;17.00;93.90;;;;;;5106889;28;20815;-41
2021/05/30 10:30:42;;;;;;;9.35;6.22;;;17.00;93.80;;;;;;5106440;28;20111;-38
2021/05/30 10:33:24;;;;;;;6.63;5.95;;;17.00;93.60;;;;;;5107408;28;20022;-39
2021/05/30 10:35:52;;;;;;;6.00;5.40;;;17.10;93.50;;;;;;5107205;28;20063;-38
2021/05/30 10:38:39;;;;;;;5.93;5.18;;;17.10;93.30;;;;;;5108276;27;20132;-40
2021/05/30 10:41:17;;;;;;;6.43;5.00;;;17.20;93.20;;;;;;5109204;28;20481;-40
2021/05/30 10:43:44;;;;;;;5.63;5.03;;;17.30;93.10;;;;;;5088284;28;20020;-40
2021/05/30 10:46:10;;;;;;;5.65;5.15;;;17.40;93.00;;;;;;5103560;28;20024;-41
2021/05/30 10:48:38;;;;;;;5.95;5.40;;;17.50;92.80;;;;;;5108706;28;20031;-41
2021/05/30 10:53:41;;;;;;;4.82;4.32;;;17.60;92.50;;;;;;5108072;28;20026;-40
2021/05/30 10:56:21;;;;;;;4.97;4.38;;;17.60;92.40;;;;;;5108729;28;20099;-40
2021/05/30 10:59:05;;;;;;;4.40;3.60;;;17.70;92.00;;;;;;5107991;28;20035;-41
2021/05/30 11:01:34;;;;;;;3.92;3.53;;;17.70;91.90;;;;;;5108627;28;20537;-40
2021/05/30 11:07:24;;;;;;;3.22;2.78;;;17.90;91.60;;;;;;5107114;28;20347;-41
2021/05/30 11:09:59;;;;;;;4.25;3.85;;;17.90;91.60;;;;;;5088169;28;20036;-41
2021/05/30 11:12:33;;;;;;;3.95;3.50;;;17.90;91.50;;;;;;5107846;28;20019;-40
2021/05/30 11:15:14;;;;;;;3.55;2.90;;;17.90;91.40;;;;;;5108451;28;20094;-39
2021/05/30 11:17:42;;;;;;;3.30;3.00;;;17.90;91.20;;;;;;5107702;28;20035;-40
2021/05/30 11:20:43;;;;;;;3.90;3.20;;;17.90;90.70;;;;;;5108194;28;20034;-39
2021/05/30 11:23:12;;;;;;;3.53;3.22;;;18.10;90.80;;;;;;5108531;28;20645;-40
2021/05/30 11:25:53;;;;;;;3.17;2.88;;;18.20;90.50;;;;;;5108273;28;20026;-40
2021/05/30 11:28:26;;;;;;;3.50;3.00;;;18.30;90.30;;;;;;5108306;28;20236;-38
2021/05/30 11:30:53;;;;;;;4.30;3.90;;;18.40;90.30;;;;;;5106988;28;20442;-39
2021/05/30 11:33:22;;;;;;;4.53;3.70;;;18.40;90.10;;;;;;5107722;28;20042;-41
2021/05/30 11:36:02;;;;;;;3.42;3.13;;;18.50;90.10;;;;;;5107594;28;20183;-39
2021/05/30 11:38:52;;;;;;;3.88;3.38;;;18.50;90.00;;;;;;5108274;28;20088;-41
2021/05/30 11:41:27;;;;;;;5.40;3.50;;;18.50;89.70;;;;;;5108440;28;20613;-41
2021/05/30 11:44:06;;;;;;;3.97;3.33;;;18.50;89.60;;;;;;5104008;28;20026;-40
2021/05/30 11:46:57;;;;;;;3.85;3.45;;;18.60;89.60;;;;;;5107749;28;20099;-39
2021/05/30 11:49:30;;;;;;;3.97;2.92;;;18.60;89.30;;;;;;5106529;28;20158;-39
2021/05/30 11:52:16;;;;;;;4.60;3.38;;;18.60;88.80;;;;;;5107966;28;20332;-39
2021/05/30 11:54:41;;;;;;;3.05;2.80;;;18.70;88.00;;;;;;5096292;28;20450;-40
2021/05/30 11:57:08;;;;;;;2.80;2.55;;;18.80;88.00;;;;;;5107461;28;20126;-39
2021/05/30 11:59:58;;;;;;;3.70;2.65;;;18.90;87.90;;;;;;5107747;28;20023;-39
2021/05/30 12:02:27;;;;;;;3.83;2.85;;;18.90;87.30;;;;;;5108020;28;20038;-40
2021/05/30 12:04:58;;;;;;;3.08;2.78;;;18.90;87.20;;;;;;5108000;28;20068;-40
2021/05/30 12:07:26;;;;;;;2.58;2.38;;;19.00;87.00;;;;;;5107367;28;20059;-40
2021/05/30 12:09:53;;;;;;;2.38;2.17;;;19.10;87.00;;;;;;5106817;28;20481;-40
2021/05/30 12:12:41;;;;;;;3.83;2.28;;;19.10;87.00;;;;;;5107342;28;20024;-39
2021/05/30 12:15:15;;;;;;;2.88;2.65;;;19.10;86.50;;;;;;5105814;28;20418;-38
2021/05/30 12:18:01;;;;;;;2.50;2.30;;;19.20;86.10;;;;;;5106832;28;20011;-40
2021/05/30 12:20:29;;;;;;;2.28;2.00;;;19.30;86.00;;;;;;5108037;27;20078;-40
2021/05/30 12:23:15;;;;;;;2.83;2.20;;;19.30;85.70;;;;;;5106529;28;20039;-41
2021/05/30 12:25:54;;;;;;;2.55;2.17;;;19.40;84.90;;;;;;5104499;28;20020;-41
2021/05/30 12:28:27;;;;;;;2.40;2.20;;;19.50;84.10;;;;;;5104834;28;20051;-41
2021/05/30 12:30:54;;;;;;;2.78;2.47;;;19.70;83.70;;;;;;5106008;28;20469;-42
2021/05/30 12:33:21;;;;;;;2.78;2.30;;;19.70;83.10;;;;;;5107534;28;20028;-40
2021/05/30 12:35:52;;;;;;;2.75;2.20;;;19.80;83.10;;;;;;5106851;28;20041;-39
2021/05/30 12:38:23;;;;;;;2.70;2.25;;;19.80;83.10;;;;;;5106927;28;20016;-41
2021/05/30 12:40:49;;;;;;;2.40;2.20;;;19.80;82.80;;;;;;5103969;28;20024;-38
2021/05/30 12:43:39;;;;;;;2.67;2.22;;;19.80;81.20;;;;;;5107097;28;20104;-40
2021/05/30 12:46:09;;;;;;;3.65;2.03;;;19.80;80.70;;;;;;5106793;28;20106;-42
2021/05/30 12:48:47;;;;;;;3.00;2.70;;;19.80;80.80;;;;;;5106975;28;20539;-39
2021/05/30 12:51:22;;;;;;;2.50;2.30;;;19.80;81.00;;;;;;5104547;28;20028;-41